createdAt,value
2023-05-21T00:00:11.397Z,11.68
2023-05-21T00:02:37.403Z,12.02
2023-05-21T00:05:03.469Z,12.07
2023-05-21T00:07:30.843Z,12.85
2023-05-21T00:09:56.825Z,12.77
2023-05-21T00:12:22.596Z,12.65
2023-05-21T00:14:48.376Z,13.88
2023-05-21T00:17:14.161Z,11.85
2023-05-21T00:19:39.962Z,11.70
2023-05-21T00:22:05.821Z,11.55
2023-05-21T00:24:31.579Z,11.90
2023-05-21T00:26:57.370Z,11.25
2023-05-21T00:29:23.634Z,13.00
2023-05-21T00:31:50.504Z,12.60
2023-05-21T00:34:16.498Z,13.07
2023-05-21T00:36:44.799Z,11.77
2023-05-21T00:39:10.985Z,12.13
2023-05-21T00:41:39.388Z,13.30
2023-05-21T00:44:05.771Z,13.57
2023-05-21T00:46:31.820Z,14.38
2023-05-21T00:48:58.214Z,12.43
2023-05-21T00:51:24.120Z,13.82
2023-05-21T00:53:50.847Z,12.95
2023-05-21T00:56:16.772Z,12.57
2023-05-21T00:58:42.556Z,13.07
2023-05-21T01:01:12.963Z,14.27
2023-05-21T01:03:40.295Z,13.60
2023-05-21T01:06:06.797Z,13.27
2023-05-21T01:08:34.258Z,14.93
2023-05-21T01:11:01.832Z,13.30
2023-05-21T01:13:28.267Z,13.20
2023-05-21T01:15:54.227Z,14.25
2023-05-21T01:18:20.707Z,14.93
2023-05-21T01:20:49.598Z,14.32
2023-05-21T01:23:18.654Z,13.15
2023-05-21T01:25:44.652Z,13.60
2023-05-21T01:28:10.702Z,15.07
2023-05-21T01:30:37.415Z,14.25
2023-05-21T01:33:07.087Z,14.05
2023-05-21T01:35:34.679Z,14.33
2023-05-21T01:38:13.460Z,15.02
2023-05-21T01:40:47.483Z,14.40
2023-05-21T01:43:13.655Z,15.63
2023-05-21T01:45:41.476Z,16.08
2023-05-21T01:48:08.423Z,15.30
2023-05-21T01:50:35.199Z,15.32
2023-05-21T01:53:03.024Z,14.70
2023-05-21T01:55:30.579Z,15.40
2023-05-21T01:57:56.923Z,15.13
2023-05-21T02:00:24.139Z,15.65
2023-05-21T02:02:51.080Z,15.85
2023-05-21T02:05:17.265Z,15.00
2023-05-21T02:07:44.586Z,15.73
2023-05-21T02:10:10.869Z,16.10
2023-05-21T02:12:36.913Z,14.70
2023-05-21T02:15:03.378Z,17.00
2023-05-21T02:17:33.454Z,16.58
2023-05-21T02:20:10.801Z,15.05
2023-05-21T02:22:37.758Z,16.45
2023-05-21T02:25:04.046Z,15.38
2023-05-21T02:27:31.868Z,16.00
2023-05-21T02:29:58.606Z,16.35
2023-05-21T02:32:24.430Z,16.85
2023-05-21T02:34:50.475Z,15.27
2023-05-21T02:37:16.952Z,16.38
2023-05-21T02:39:42.700Z,18.92
2023-05-21T02:42:08.463Z,15.85
2023-05-21T02:44:34.232Z,16.60
2023-05-21T02:47:00.010Z,15.73
2023-05-21T02:49:25.800Z,15.45
2023-05-21T02:51:51.559Z,16.25
2023-05-21T02:54:17.337Z,15.75
2023-05-21T02:56:43.106Z,15.60
2023-05-21T02:59:08.881Z,16.98
2023-05-21T03:01:34.774Z,15.02
2023-05-21T03:04:00.574Z,17.13
2023-05-21T03:06:26.378Z,16.73
2023-05-21T03:08:52.168Z,16.25
2023-05-21T03:11:18.405Z,15.98
2023-05-21T03:13:44.273Z,17.00
2023-05-21T03:16:10.466Z,16.65
2023-05-21T03:18:36.235Z,16.67
2023-05-21T03:21:02.107Z,16.08
2023-05-21T03:23:27.854Z,17.02
2023-05-21T03:25:53.644Z,16.85
2023-05-21T03:28:19.435Z,15.65
2023-05-21T03:30:45.730Z,18.02
2023-05-21T03:33:13.311Z,17.55
2023-05-21T03:35:39.244Z,16.48
2023-05-21T03:38:05.168Z,18.15
2023-05-21T03:40:30.962Z,15.95
2023-05-21T03:42:56.767Z,17.60
2023-05-21T03:45:22.526Z,16.88
2023-05-21T03:47:48.816Z,15.82
2023-05-21T03:50:15.084Z,19.50
2023-05-21T03:52:40.876Z,17.83
2023-05-21T03:55:06.854Z,15.65
2023-05-21T03:57:32.636Z,16.77
2023-05-21T03:59:58.401Z,14.82
2023-05-21T04:02:27.552Z,16.63
2023-05-21T04:04:55.138Z,15.25
2023-05-21T04:07:21.659Z,15.40
2023-05-21T04:09:47.661Z,15.52
2023-05-21T04:12:13.512Z,14.02
2023-05-21T04:14:39.322Z,15.30
2023-05-21T04:17:05.365Z,14.45
2023-05-21T04:19:31.779Z,14.75
2023-05-21T04:21:57.631Z,14.32
2023-05-21T04:24:23.909Z,13.07
2023-05-21T04:26:49.697Z,13.82
2023-05-21T04:29:20.472Z,14.02
2023-05-21T04:31:49.244Z,14.48
2023-05-21T04:34:18.413Z,14.23
2023-05-21T04:36:44.812Z,12.82
2023-05-21T04:39:11.656Z,14.30
2023-05-21T04:41:38.302Z,13.23
2023-05-21T04:44:05.705Z,13.27
2023-05-21T04:46:31.580Z,12.80
2023-05-21T04:48:57.549Z,13.70
2023-05-21T04:51:26.349Z,12.32
2023-05-21T04:53:53.194Z,12.93
2023-05-21T04:56:19.343Z,12.98
2023-05-21T04:58:47.180Z,13.02
2023-05-21T05:01:13.122Z,13.13
2023-05-21T05:03:39.052Z,12.70
2023-05-21T05:06:05.122Z,13.27
2023-05-21T05:08:31.039Z,13.38
2023-05-21T05:10:56.812Z,12.82
2023-05-21T05:13:22.573Z,13.30
2023-05-21T05:15:50.207Z,13.02
2023-05-21T05:18:16.847Z,13.63
2023-05-21T05:20:42.770Z,13.93
2023-05-21T05:23:08.560Z,13.57
2023-05-21T05:25:34.314Z,11.95
2023-05-21T05:28:00.133Z,12.95
2023-05-21T05:30:26.179Z,12.88
2023-05-21T05:32:52.001Z,14.38
2023-05-21T05:35:17.768Z,12.93
2023-05-21T05:37:43.541Z,12.95
2023-05-21T05:40:09.824Z,13.48
2023-05-21T05:42:35.643Z,14.38
2023-05-21T05:45:01.440Z,13.98
2023-05-21T05:47:27.460Z,13.07
2023-05-21T05:49:53.402Z,14.57
2023-05-21T05:52:19.163Z,13.85
2023-05-21T05:54:45.264Z,14.43
2023-05-21T05:57:11.037Z,14.77
2023-05-21T05:59:36.840Z,16.10
2023-05-21T06:02:02.650Z,14.35
2023-05-21T06:04:29.336Z,15.00
2023-05-21T06:06:56.968Z,14.23
2023-05-21T06:09:23.299Z,13.18
2023-05-21T06:11:49.223Z,13.80
2023-05-21T06:14:15.131Z,14.32
2023-05-21T06:16:41.001Z,14.15
2023-05-21T06:19:06.965Z,14.88
2023-05-21T06:21:32.835Z,13.98
2023-05-21T06:23:58.876Z,13.98
2023-05-21T06:26:24.837Z,14.07
2023-05-21T06:28:50.690Z,15.13
2023-05-21T06:31:16.564Z,13.35
2023-05-21T06:33:42.451Z,13.63
2023-05-21T06:36:08.480Z,13.63
2023-05-21T06:38:34.283Z,13.55
2023-05-21T06:41:00.348Z,14.52
2023-05-21T06:43:28.064Z,13.55
2023-05-21T06:45:53.848Z,12.98
2023-05-21T06:48:19.915Z,12.82
2023-05-21T06:50:45.746Z,13.20
2023-05-21T06:53:13.230Z,12.70
2023-05-21T06:55:39.199Z,13.40
2023-05-21T06:58:05.052Z,12.30
2023-05-21T07:00:30.933Z,13.77
2023-05-21T07:02:56.888Z,13.48
2023-05-21T07:05:22.775Z,13.20
2023-05-21T07:07:48.652Z,12.15
2023-05-21T07:10:14.643Z,13.75
2023-05-21T07:12:46.615Z,10.93
2023-05-21T07:15:12.532Z,13.10
2023-05-21T07:17:38.410Z,12.15
2023-05-21T07:20:07.803Z,13.30
2023-05-21T07:22:34.094Z,11.55
2023-05-21T07:24:59.963Z,11.73
2023-05-21T07:27:26.399Z,13.02
2023-05-21T07:29:52.630Z,11.98
2023-05-21T07:32:18.569Z,11.82
2023-05-21T07:34:44.467Z,12.30
2023-05-21T07:37:10.430Z,11.55
2023-05-21T07:39:37.284Z,12.00
2023-05-21T07:42:03.227Z,12.25
2023-05-21T07:44:29.105Z,11.95
2023-05-21T07:46:55.368Z,12.07
2023-05-21T07:49:21.200Z,11.32
2023-05-21T07:51:47.093Z,11.70
2023-05-21T07:54:13.005Z,12.52
2023-05-21T07:56:38.855Z,12.52
2023-05-21T07:59:05.383Z,11.32
2023-05-21T08:01:32.440Z,12.07
2023-05-21T08:04:00.741Z,11.43
2023-05-21T08:06:26.799Z,10.93
2023-05-21T08:08:53.789Z,11.45
2023-05-21T08:11:21.233Z,10.77
2023-05-21T08:13:50.267Z,11.35
2023-05-21T08:16:16.825Z,11.27
2023-05-21T08:18:42.783Z,10.32
2023-05-21T08:21:08.856Z,10.75
2023-05-21T08:23:34.664Z,9.75
2023-05-21T08:26:00.865Z,10.25
2023-05-21T08:28:28.178Z,9.95
2023-05-21T08:30:54.309Z,9.93
2023-05-21T08:33:21.123Z,10.05
2023-05-21T08:35:47.443Z,9.45
2023-05-21T08:38:13.303Z,10.35
2023-05-21T08:40:40.878Z,10.25
2023-05-21T08:43:06.828Z,8.68
2023-05-21T08:45:37.534Z,9.05
2023-05-21T08:48:05.106Z,10.02
2023-05-21T08:50:31.313Z,9.18
2023-05-21T08:52:58.325Z,9.45
2023-05-21T08:55:24.379Z,10.30
2023-05-21T08:57:50.207Z,9.07
2023-05-21T09:00:16.291Z,7.93
2023-05-21T09:02:44.165Z,8.52
2023-05-21T09:05:11.211Z,8.82
2023-05-21T09:08:04.763Z,9.10
2023-05-21T09:10:38.655Z,9.43
2023-05-21T09:13:10.895Z,9.38
2023-05-21T09:15:37.080Z,9.07
2023-05-21T09:18:03.250Z,8.63
2023-05-21T09:20:29.826Z,8.05
2023-05-21T09:22:55.752Z,8.18
2023-05-21T09:25:24.629Z,8.32
2023-05-21T09:27:50.678Z,8.13
2023-05-21T09:30:17.379Z,9.35
2023-05-21T09:32:44.013Z,8.30
2023-05-21T09:35:13.646Z,8.43
2023-05-21T09:37:44.410Z,8.73
2023-05-21T09:40:11.068Z,8.38
2023-05-21T09:42:47.076Z,7.20
2023-05-21T09:45:17.440Z,8.40
2023-05-21T09:47:43.985Z,7.82
2023-05-21T09:50:10.804Z,7.22
2023-05-21T09:52:37.167Z,6.68
2023-05-21T09:55:03.873Z,6.60
2023-05-21T09:57:29.850Z,5.90
2023-05-21T09:59:55.731Z,6.07
2023-05-21T10:02:22.299Z,6.07
2023-05-21T10:04:52.345Z,5.47
2023-05-21T10:07:25.282Z,8.73
2023-05-21T10:09:55.916Z,6.72
2023-05-21T10:12:22.886Z,5.00
2023-05-21T10:14:51.576Z,5.30
2023-05-21T10:17:18.055Z,4.95
2023-05-21T10:19:45.852Z,6.00
2023-05-21T10:22:12.468Z,5.53
2023-05-21T10:24:39.544Z,4.82
2023-05-21T10:27:06.564Z,5.90
2023-05-21T10:29:33.138Z,5.47
2023-05-21T10:32:00.557Z,4.65
2023-05-21T10:34:27.518Z,5.68
2023-05-21T10:36:55.197Z,5.30
2023-05-21T10:39:21.611Z,4.88
2023-05-21T10:42:17.006Z,4.82
2023-05-21T10:45:07.575Z,4.10
2023-05-21T10:47:39.497Z,4.13
2023-05-21T10:50:24.227Z,4.70
2023-05-21T10:52:56.454Z,4.85
2023-05-21T10:55:57.997Z,4.47
2023-05-21T10:58:31.919Z,5.10
2023-05-21T11:00:58.775Z,4.25
2023-05-21T11:03:25.172Z,4.38
2023-05-21T11:05:52.322Z,4.82
2023-05-21T11:08:21.065Z,4.03
2023-05-21T11:10:51.379Z,3.80
2023-05-21T11:15:57.741Z,3.97
2023-05-21T11:18:43.895Z,3.88
2023-05-21T11:21:10.593Z,4.57
2023-05-21T11:23:51.854Z,4.53
2023-05-21T11:26:24.211Z,4.78
2023-05-21T11:29:06.029Z,3.90
2023-05-21T11:31:38.921Z,4.50
2023-05-21T11:34:08.201Z,3.78
2023-05-21T11:36:36.856Z,4.80
2023-05-21T11:39:11.061Z,4.00
2023-05-21T11:41:50.098Z,3.90
2023-05-21T11:44:16.138Z,4.32
2023-05-21T11:46:42.481Z,4.00
2023-05-21T11:49:08.902Z,3.85
2023-05-21T11:51:35.846Z,3.65
2023-05-21T11:54:02.219Z,3.70
2023-05-21T11:56:28.369Z,3.22
2023-05-21T11:58:55.368Z,3.72
2023-05-21T12:01:22.341Z,3.53
2023-05-21T12:03:48.649Z,3.88
2023-05-21T12:06:16.797Z,3.95
2023-05-21T12:08:42.633Z,3.80
2023-05-21T12:11:08.655Z,3.50
2023-05-21T12:13:37.649Z,3.22
2023-05-21T12:16:06.698Z,3.63
2023-05-21T12:18:33.062Z,3.07
2023-05-21T12:21:00.290Z,4.20
2023-05-21T12:23:26.286Z,4.13
2023-05-21T12:25:53.032Z,4.10
2023-05-21T12:28:21.024Z,3.70
2023-05-21T12:30:47.136Z,3.80
2023-05-21T12:33:13.598Z,4.60
2023-05-21T12:35:39.689Z,4.18
2023-05-21T12:38:06.847Z,3.80
2023-05-21T12:40:37.740Z,3.33
2023-05-21T12:43:09.108Z,3.90
2023-05-21T12:45:36.622Z,3.88
2023-05-21T12:48:04.156Z,3.72
2023-05-21T12:50:30.074Z,3.60
2023-05-21T12:52:57.323Z,3.80
2023-05-21T12:55:24.719Z,3.55
2023-05-21T12:57:51.448Z,3.92
2023-05-21T13:00:22.991Z,4.95
2023-05-21T13:02:48.936Z,4.03
2023-05-21T13:05:18.060Z,3.88
2023-05-21T13:07:46.346Z,3.78
2023-05-21T13:10:12.717Z,4.18
2023-05-21T13:12:43.470Z,3.55
2023-05-21T13:15:10.568Z,3.47
2023-05-21T13:17:36.656Z,3.35
2023-05-21T13:20:08.615Z,4.18
2023-05-21T13:22:35.264Z,3.33
2023-05-21T13:25:01.865Z,3.38
2023-05-21T13:27:27.919Z,3.67
2023-05-21T13:29:54.306Z,3.80
2023-05-21T13:32:20.888Z,3.60
2023-05-21T13:34:47.509Z,4.97
2023-05-21T13:37:13.669Z,3.65
2023-05-21T13:39:39.584Z,4.20
2023-05-21T13:42:05.613Z,3.42
2023-05-21T13:44:35.528Z,3.85
2023-05-21T13:47:05.618Z,3.33
2023-05-21T13:49:32.852Z,3.63
2023-05-21T13:52:00.341Z,3.40
2023-05-21T13:54:26.624Z,3.03
2023-05-21T13:56:52.718Z,3.63
2023-05-21T13:59:18.688Z,3.92
2023-05-21T14:01:45.124Z,4.00
2023-05-21T14:04:11.527Z,4.07
2023-05-21T14:06:37.697Z,3.45
2023-05-21T14:09:03.868Z,3.25
2023-05-21T14:11:30.834Z,3.60
2023-05-21T14:13:56.792Z,3.67
2023-05-21T14:16:24.220Z,3.40
2023-05-21T14:18:50.631Z,3.92
2023-05-21T14:21:16.772Z,3.90
2023-05-21T14:23:42.658Z,3.60
2023-05-21T14:26:08.567Z,3.78
2023-05-21T14:28:34.471Z,3.67
2023-05-21T14:31:01.052Z,4.00
2023-05-21T14:33:29.490Z,3.85
2023-05-21T14:35:55.532Z,3.47
2023-05-21T14:38:21.472Z,3.53
2023-05-21T14:40:49.043Z,2.88
2023-05-21T14:43:21.255Z,3.20
2023-05-21T14:45:47.205Z,3.50
2023-05-21T14:48:13.152Z,3.85
2023-05-21T14:50:39.397Z,3.50
2023-05-21T14:53:08.273Z,3.63
2023-05-21T14:55:37.068Z,3.38
2023-05-21T14:58:04.120Z,3.53
2023-05-21T15:00:30.760Z,3.25
2023-05-21T15:02:57.506Z,3.72
2023-05-21T15:05:24.218Z,3.63
2023-05-21T15:07:50.308Z,4.53
2023-05-21T15:10:18.581Z,3.38
2023-05-21T15:12:49.953Z,3.33
2023-05-21T15:15:16.691Z,3.70
2023-05-21T15:17:43.227Z,4.00
2023-05-21T15:20:09.713Z,3.85
2023-05-21T15:22:36.013Z,3.70
2023-05-21T15:25:03.060Z,3.47
2023-05-21T15:27:28.912Z,3.22
2023-05-21T15:29:55.246Z,4.35
2023-05-21T15:32:21.247Z,3.58
2023-05-21T15:34:50.734Z,4.22
2023-05-21T15:37:17.026Z,3.58
2023-05-21T15:39:43.793Z,3.83
2023-05-21T15:42:11.072Z,3.97
2023-05-21T15:44:59.905Z,4.35
2023-05-21T15:47:25.927Z,3.15
2023-05-21T15:49:52.368Z,3.53
2023-05-21T15:52:19.442Z,4.13
2023-05-21T15:54:46.246Z,3.85
2023-05-21T15:57:12.259Z,2.92
2023-05-21T15:59:38.189Z,3.35
2023-05-21T16:02:04.143Z,3.38
2023-05-21T16:04:32.422Z,3.60
2023-05-21T16:06:58.221Z,3.70
2023-05-21T16:09:24.148Z,4.22
2023-05-21T16:11:50.287Z,2.92
2023-05-21T16:14:16.114Z,3.30
2023-05-21T16:16:42.017Z,3.10
2023-05-21T16:19:08.612Z,3.17
2023-05-21T16:21:34.603Z,4.18
2023-05-21T16:24:00.953Z,3.53
2023-05-21T16:26:27.023Z,2.92
2023-05-21T16:28:52.991Z,3.22
2023-05-21T16:31:18.908Z,3.25
2023-05-21T16:33:44.792Z,3.00
2023-05-21T16:36:11.069Z,2.92
2023-05-21T16:38:37.546Z,3.72
2023-05-21T16:41:03.422Z,3.30
2023-05-21T16:43:32.377Z,3.50
2023-05-21T16:45:58.340Z,3.88
2023-05-21T16:48:24.268Z,3.30
2023-05-21T16:50:50.387Z,3.60
2023-05-21T16:53:16.595Z,3.90
2023-05-21T16:55:42.692Z,2.65
2023-05-21T16:58:10.120Z,3.50
2023-05-21T17:00:36.393Z,3.45
2023-05-21T17:03:02.629Z,3.38
2023-05-21T17:05:28.611Z,3.30
2023-05-21T17:07:55.077Z,2.80
2023-05-21T17:10:21.028Z,2.85
2023-05-21T17:13:01.820Z,3.80
2023-05-21T17:15:32.750Z,3.33
2023-05-21T17:17:59.104Z,3.50
2023-05-21T17:20:25.867Z,2.67
2023-05-21T17:22:51.799Z,3.35
2023-05-21T17:25:18.114Z,3.25
2023-05-21T17:27:43.932Z,3.00
2023-05-21T17:30:10.146Z,3.20
2023-05-21T17:32:36.059Z,2.90
2023-05-21T17:35:02.103Z,3.08
2023-05-21T17:37:28.255Z,3.13
2023-05-21T17:39:54.068Z,3.00
2023-05-21T17:42:20.588Z,3.63
2023-05-21T17:45:23.684Z,2.85
2023-05-21T17:47:49.810Z,3.33
2023-05-21T17:50:16.022Z,3.13
2023-05-21T17:52:41.999Z,3.42
2023-05-21T17:55:08.157Z,2.28
2023-05-21T17:57:35.239Z,4.25
2023-05-21T18:00:01.576Z,3.17
2023-05-21T18:02:27.545Z,3.33
2023-05-21T18:04:53.629Z,3.20
2023-05-21T18:07:19.624Z,2.75
2023-05-21T18:09:45.517Z,2.42
2023-05-21T18:12:11.444Z,3.10
2023-05-21T18:14:37.393Z,4.10
2023-05-21T18:17:03.362Z,2.78
2023-05-21T18:19:30.622Z,3.17
2023-05-21T18:21:56.865Z,3.30
2023-05-21T18:24:22.842Z,3.00
2023-05-21T18:26:48.998Z,2.72
2023-05-21T18:29:14.867Z,3.00
2023-05-21T18:31:42.934Z,2.88
2023-05-21T18:34:09.078Z,2.63
2023-05-21T18:36:38.066Z,2.88
2023-05-21T18:39:05.218Z,2.47
2023-05-21T18:41:31.243Z,2.58
2023-05-21T18:44:09.510Z,3.08
2023-05-21T18:46:35.772Z,2.97
2023-05-21T18:49:01.802Z,2.80
2023-05-21T18:51:27.750Z,3.47
2023-05-21T18:53:53.650Z,3.00
2023-05-21T18:56:19.491Z,3.20
2023-05-21T18:58:45.684Z,2.85
2023-05-21T19:01:11.580Z,2.92
2023-05-21T19:03:37.696Z,2.67
2023-05-21T19:06:03.538Z,3.25
2023-05-21T19:08:29.402Z,2.78
2023-05-21T19:10:55.277Z,3.17
2023-05-21T19:13:22.041Z,2.80
2023-05-21T19:15:48.372Z,2.97
2023-05-21T19:18:14.422Z,2.70
2023-05-21T19:20:40.442Z,2.58
2023-05-21T19:23:06.493Z,2.85
2023-05-21T19:25:32.317Z,2.88
2023-05-21T19:28:00.050Z,3.00
2023-05-21T19:30:26.344Z,3.63
2023-05-21T19:32:52.476Z,3.00
2023-05-21T19:35:18.542Z,2.50
2023-05-21T19:37:44.551Z,2.88
2023-05-21T19:40:10.672Z,2.63
2023-05-21T19:42:42.117Z,2.67
2023-05-21T19:45:08.966Z,3.22
2023-05-21T19:47:35.385Z,3.35
2023-05-21T19:50:01.766Z,3.65
2023-05-21T19:52:27.646Z,2.58
2023-05-21T19:54:53.544Z,3.50
2023-05-21T19:57:19.428Z,3.75
2023-05-21T19:59:45.248Z,3.00
2023-05-21T20:02:12.642Z,3.50
2023-05-21T20:04:38.500Z,2.83
2023-05-21T20:07:04.846Z,3.10
2023-05-21T20:09:33.497Z,3.17
2023-05-21T20:11:59.481Z,2.80
2023-05-21T20:14:25.300Z,3.58
2023-05-21T20:16:53.024Z,3.70
2023-05-21T20:19:21.846Z,4.18
2023-05-21T20:21:48.040Z,3.08
2023-05-21T20:24:14.194Z,3.30
2023-05-21T20:26:40.218Z,3.03
2023-05-21T20:29:07.419Z,3.58
2023-05-21T20:31:33.472Z,3.25
2023-05-21T20:34:00.320Z,2.88
2023-05-21T20:36:26.517Z,2.75
2023-05-21T20:38:52.490Z,2.75
2023-05-21T20:41:19.506Z,2.42
2023-05-21T20:43:48.523Z,2.80
2023-05-21T20:46:16.678Z,3.67
2023-05-21T20:48:43.168Z,3.08
2023-05-21T20:51:09.161Z,2.95
2023-05-21T20:53:35.071Z,2.53
2023-05-21T20:56:00.968Z,2.53
2023-05-21T20:58:27.218Z,2.85
2023-05-21T21:00:54.545Z,2.40
2023-05-21T21:03:20.995Z,2.53
2023-05-21T21:05:47.039Z,3.15
2023-05-21T21:08:15.478Z,2.85
2023-05-21T21:10:42.097Z,2.75
2023-05-21T21:13:13.606Z,2.97
2023-05-21T21:15:39.536Z,2.50
2023-05-21T21:18:05.404Z,3.90
2023-05-21T21:20:31.280Z,2.83
2023-05-21T21:22:57.051Z,3.22
2023-05-21T21:25:22.864Z,3.13
2023-05-21T21:27:48.661Z,2.47
2023-05-21T21:30:14.453Z,3.40
2023-05-21T21:32:40.497Z,3.00
2023-05-21T21:35:06.395Z,2.72
2023-05-21T21:37:32.155Z,2.58
2023-05-21T21:39:57.995Z,3.17
2023-05-21T21:42:23.919Z,2.75
2023-05-21T21:44:49.732Z,3.22
2023-05-21T21:47:15.512Z,2.70
2023-05-21T21:49:41.327Z,2.50
2023-05-21T21:52:07.502Z,2.97
2023-05-21T21:54:33.550Z,2.63
2023-05-21T21:56:59.402Z,3.50
2023-05-21T21:59:25.177Z,2.72
2023-05-21T22:01:50.988Z,2.72
2023-05-21T22:04:16.880Z,3.08
2023-05-21T22:06:44.600Z,3.05
2023-05-21T22:09:10.500Z,2.35
2023-05-21T22:11:36.322Z,2.47
2023-05-21T22:14:02.192Z,2.78
2023-05-21T22:16:28.394Z,3.03
2023-05-21T22:18:54.457Z,2.80
2023-05-21T22:21:20.842Z,2.30
2023-05-21T22:23:46.673Z,3.28
2023-05-21T22:26:12.457Z,2.65
2023-05-21T22:28:38.266Z,3.30
2023-05-21T22:31:04.233Z,2.88
2023-05-21T22:33:30.651Z,2.80
2023-05-21T22:35:56.450Z,3.03
2023-05-21T22:38:22.232Z,2.65
2023-05-21T22:40:48.000Z,2.85
2023-05-21T22:43:13.811Z,2.70
2023-05-21T22:45:39.955Z,3.88
2023-05-21T22:48:08.715Z,2.92
2023-05-21T22:50:35.188Z,2.50
2023-05-21T22:53:01.125Z,3.17
2023-05-21T22:55:26.884Z,3.30
2023-05-21T22:57:52.684Z,3.10
2023-05-21T23:00:18.622Z,2.63
2023-05-21T23:02:47.894Z,3.20
2023-05-21T23:05:13.892Z,2.65
2023-05-21T23:07:40.686Z,2.65
2023-05-21T23:10:06.991Z,2.72
2023-05-21T23:12:32.819Z,3.10
2023-05-21T23:14:58.691Z,3.35
2023-05-21T23:17:24.512Z,2.25
2023-05-21T23:19:51.713Z,3.47
2023-05-21T23:22:18.300Z,3.00
2023-05-21T23:24:44.171Z,2.65
2023-05-21T23:27:10.159Z,3.03
2023-05-21T23:29:35.954Z,2.97
2023-05-21T23:32:04.336Z,2.78
2023-05-21T23:34:30.698Z,2.63
2023-05-21T23:36:58.723Z,3.03
2023-05-21T23:39:26.389Z,3.10
2023-05-21T23:41:52.183Z,3.20
2023-05-21T23:44:19.609Z,7.60
2023-05-21T23:46:45.456Z,4.18
2023-05-21T23:49:11.229Z,2.65
2023-05-21T23:51:37.275Z,3.10
2023-05-21T23:54:03.172Z,2.83
2023-05-21T23:56:29.222Z,2.70
2023-05-21T23:58:54.994Z,3.17
